createdAt,value
2018-01-13T00:00:49.088Z,0.00
2018-01-13T00:01:49.078Z,0.00
2018-01-13T00:02:49.071Z,0.00
2018-01-13T00:03:49.064Z,0.00
2018-01-13T00:04:49.053Z,0.00
2018-01-13T00:05:49.050Z,0.00
2018-01-13T00:06:49.042Z,0.00
2018-01-13T00:07:49.034Z,0.00
2018-01-13T00:08:49.025Z,0.00
2018-01-13T00:09:49.018Z,0.00
2018-01-13T00:10:49.008Z,0.00
2018-01-13T00:11:49.001Z,0.00
2018-01-13T00:12:48.991Z,0.00
2018-01-13T00:13:48.984Z,0.00
2018-01-13T00:14:48.972Z,0.00
2018-01-13T00:15:48.963Z,0.00
2018-01-13T00:16:48.954Z,0.00
2018-01-13T00:17:48.946Z,0.00
2018-01-13T00:18:48.939Z,0.00
2018-01-13T00:19:48.930Z,0.00
2018-01-13T00:20:48.921Z,0.00
2018-01-13T00:21:48.913Z,0.00
2018-01-13T00:22:48.910Z,0.00
2018-01-13T00:23:48.901Z,0.00
2018-01-13T00:24:48.892Z,0.00
2018-01-13T00:25:48.883Z,0.00
2018-01-13T00:26:48.875Z,0.00
2018-01-13T00:27:48.868Z,0.00
2018-01-13T00:28:48.858Z,0.00
2018-01-13T00:29:48.850Z,0.00
2018-01-13T00:30:48.838Z,0.00
2018-01-13T00:31:48.831Z,0.00
2018-01-13T00:32:48.820Z,0.00
2018-01-13T00:33:48.813Z,0.00
2018-01-13T00:34:48.805Z,0.00
2018-01-13T00:35:48.796Z,0.00
2018-01-13T00:36:48.788Z,0.00
2018-01-13T00:37:48.778Z,0.00
2018-01-13T00:38:48.775Z,0.00
2018-01-13T00:39:48.767Z,0.00
2018-01-13T00:40:48.758Z,0.00
2018-01-13T00:41:48.750Z,0.00
2018-01-13T00:42:48.742Z,0.00
2018-01-13T00:43:48.734Z,0.00
2018-01-13T00:44:48.725Z,0.00
2018-01-13T00:45:48.718Z,0.00
2018-01-13T00:46:48.704Z,0.00
2018-01-13T00:47:48.697Z,0.00
2018-01-13T00:48:48.688Z,0.00
2018-01-13T00:49:48.680Z,0.00
2018-01-13T00:50:48.671Z,0.00
2018-01-13T00:51:48.662Z,0.00
2018-01-13T00:52:48.653Z,0.00
2018-01-13T00:53:48.646Z,0.00
2018-01-13T00:54:48.642Z,0.00
2018-01-13T00:55:48.633Z,0.00
2018-01-13T00:56:48.624Z,0.00
2018-01-13T00:57:48.617Z,0.00
2018-01-13T00:58:48.608Z,0.00
2018-01-13T00:59:48.599Z,0.00
2018-01-13T01:00:48.589Z,0.00
2018-01-13T01:01:48.582Z,0.00
2018-01-13T01:02:48.570Z,0.00
2018-01-13T01:03:48.561Z,0.00
2018-01-13T01:04:48.552Z,0.00
2018-01-13T01:05:48.543Z,0.00
2018-01-13T01:06:48.540Z,0.00
2018-01-13T01:07:48.531Z,0.00
2018-01-13T01:08:48.522Z,0.00
2018-01-13T01:09:48.515Z,0.00
2018-01-13T01:10:48.501Z,0.00
2018-01-13T01:11:48.531Z,0.00
2018-01-13T01:12:48.483Z,0.00
2018-01-13T01:13:48.475Z,0.00
2018-01-13T01:14:48.467Z,0.00
2018-01-13T01:15:48.459Z,0.00
2018-01-13T01:16:48.450Z,0.00
2018-01-13T01:17:48.441Z,0.00
2018-01-13T01:18:48.437Z,0.00
2018-01-13T01:19:48.429Z,0.00
2018-01-13T01:20:48.420Z,0.00
2018-01-13T01:21:48.411Z,0.00
2018-01-13T01:22:48.403Z,0.00
2018-01-13T01:23:48.395Z,0.00
2018-01-13T01:24:48.386Z,0.00
2018-01-13T01:25:48.377Z,0.00
2018-01-13T01:26:48.365Z,0.00
2018-01-13T01:27:48.357Z,0.00
2018-01-13T01:28:48.349Z,0.00
2018-01-13T01:29:48.339Z,0.00
2018-01-13T01:30:48.331Z,0.00
2018-01-13T01:31:48.324Z,0.00
2018-01-13T01:32:48.314Z,0.00
2018-01-13T01:33:48.305Z,0.00
2018-01-13T01:34:48.302Z,0.00
2018-01-13T01:35:48.293Z,0.00
2018-01-13T01:36:48.285Z,0.00
2018-01-13T01:37:48.276Z,0.00
2018-01-13T01:38:48.268Z,0.00
2018-01-13T01:39:48.314Z,0.00
2018-01-13T01:40:48.251Z,0.00
2018-01-13T01:41:48.243Z,0.00
2018-01-13T01:42:48.230Z,0.00
2018-01-13T01:43:48.222Z,0.00
2018-01-13T01:44:48.212Z,0.00
2018-01-13T01:45:48.204Z,0.00
2018-01-13T01:46:48.197Z,0.00
2018-01-13T01:47:48.189Z,0.00
2018-01-13T01:48:48.179Z,0.00
2018-01-13T01:49:48.171Z,0.00
2018-01-13T01:50:48.167Z,0.00
2018-01-13T01:51:48.160Z,0.00
2018-01-13T01:52:48.151Z,0.00
2018-01-13T01:53:48.141Z,0.00
2018-01-13T01:54:48.135Z,0.00
2018-01-13T01:55:48.127Z,0.00
2018-01-13T01:56:48.120Z,0.00
2018-01-13T01:57:48.108Z,0.00
2018-01-13T01:58:48.096Z,0.00
2018-01-13T01:59:48.090Z,0.00
2018-01-13T02:00:48.079Z,0.00
2018-01-13T02:01:48.071Z,0.00
2018-01-13T02:02:48.063Z,0.00
2018-01-13T02:03:48.056Z,0.00
2018-01-13T02:04:48.046Z,0.00
2018-01-13T02:05:48.039Z,0.00
2018-01-13T02:06:48.034Z,0.00
2018-01-13T02:07:48.026Z,0.00
2018-01-13T02:08:48.017Z,0.00
2018-01-13T02:09:48.009Z,0.00
2018-01-13T02:10:47.997Z,0.00
2018-01-13T02:11:47.989Z,0.00
2018-01-13T02:12:47.979Z,0.00
2018-01-13T02:13:47.972Z,0.00
2018-01-13T02:14:47.968Z,0.00
2018-01-13T02:15:47.960Z,0.00
2018-01-13T02:16:47.951Z,0.00
2018-01-13T02:17:47.943Z,0.00
2018-01-13T02:18:47.935Z,0.00
2018-01-13T02:19:47.931Z,0.00
2018-01-13T02:20:47.918Z,0.00
2018-01-13T02:21:47.909Z,0.00
2018-01-13T02:22:47.898Z,0.00
2018-01-13T02:23:47.890Z,0.00
2018-01-13T02:24:47.882Z,0.00
2018-01-13T02:25:47.872Z,0.00
2018-01-13T02:26:47.866Z,0.00
2018-01-13T02:27:47.857Z,0.00
2018-01-13T02:28:47.847Z,0.00
2018-01-13T02:29:47.839Z,0.00
2018-01-13T02:30:47.836Z,0.00
2018-01-13T02:31:47.828Z,0.00
2018-01-13T02:32:47.819Z,0.00
2018-01-13T02:33:47.812Z,0.00
2018-01-13T02:34:47.803Z,0.00
2018-01-13T02:35:47.797Z,0.00
2018-01-13T02:36:47.788Z,0.00
2018-01-13T02:37:47.778Z,0.00
2018-01-13T02:38:47.766Z,0.00
2018-01-13T02:39:47.759Z,0.00
2018-01-13T02:40:47.749Z,0.00
2018-01-13T02:41:47.740Z,0.00
2018-01-13T02:42:47.733Z,0.00
2018-01-13T02:43:47.724Z,0.00
2018-01-13T02:44:47.716Z,0.00
2018-01-13T02:45:47.708Z,0.00
2018-01-13T02:46:47.704Z,0.00
2018-01-13T02:47:47.696Z,0.00
2018-01-13T02:48:47.688Z,0.00
2018-01-13T02:49:47.681Z,0.00
2018-01-13T02:50:47.671Z,0.00
2018-01-13T02:51:47.663Z,0.00
2018-01-13T02:52:47.654Z,0.00
2018-01-13T02:53:47.648Z,0.00
2018-01-13T02:54:47.634Z,0.00
2018-01-13T02:55:47.626Z,0.00
2018-01-13T02:56:47.617Z,0.00
2018-01-13T02:57:47.610Z,0.00
2018-01-13T02:58:47.602Z,0.00
2018-01-13T02:59:47.593Z,0.00
2018-01-13T03:00:47.584Z,0.00
2018-01-13T03:01:47.577Z,0.00
2018-01-13T03:02:47.572Z,0.00
2018-01-13T03:03:47.564Z,0.00
2018-01-13T03:04:47.557Z,0.00
2018-01-13T03:05:47.548Z,0.00
2018-01-13T03:06:47.539Z,0.00
2018-01-13T03:07:47.532Z,0.00
2018-01-13T03:08:47.523Z,0.00
2018-01-13T03:09:47.514Z,0.00
2018-01-13T03:10:47.501Z,0.00
2018-01-13T03:11:47.493Z,0.00
2018-01-13T03:12:47.484Z,0.00
2018-01-13T03:13:47.476Z,0.00
2018-01-13T03:14:47.472Z,0.00
2018-01-13T03:15:47.464Z,0.00
2018-01-13T03:16:47.455Z,0.00
2018-01-13T03:17:47.447Z,0.00
2018-01-13T03:18:47.437Z,0.00
2018-01-13T03:19:47.427Z,0.00
2018-01-13T03:20:47.417Z,0.00
2018-01-13T03:21:47.409Z,0.00
2018-01-13T03:22:47.402Z,0.00
2018-01-13T03:23:47.393Z,0.00
2018-01-13T03:24:47.384Z,0.00
2018-01-13T03:25:47.376Z,0.00
2018-01-13T03:26:47.372Z,0.00
2018-01-13T03:27:47.364Z,0.00
2018-01-13T03:28:47.357Z,0.00
2018-01-13T03:29:47.347Z,0.00
2018-01-13T03:30:47.340Z,0.00
2018-01-13T03:31:47.332Z,0.00
2018-01-13T03:32:47.325Z,0.00
2018-01-13T03:33:47.314Z,0.00
2018-01-13T03:34:47.301Z,0.00
2018-01-13T03:35:47.293Z,0.00
2018-01-13T03:36:47.284Z,0.00
2018-01-13T03:37:47.277Z,0.00
2018-01-13T03:38:47.268Z,0.00
2018-01-13T03:39:47.262Z,0.00
2018-01-13T03:40:47.251Z,0.00
2018-01-13T03:41:47.243Z,0.00
2018-01-13T03:42:47.239Z,0.00
2018-01-13T03:43:47.231Z,0.00
2018-01-13T03:44:47.222Z,0.00
2018-01-13T03:45:47.222Z,0.00
2018-01-13T03:46:47.205Z,0.00
2018-01-13T03:47:47.198Z,0.00
2018-01-13T03:48:47.190Z,0.00
2018-01-13T03:49:47.181Z,0.00
2018-01-13T03:50:47.168Z,0.00
2018-01-13T03:51:47.160Z,0.00
2018-01-13T03:52:47.152Z,0.00
2018-01-13T03:53:47.147Z,0.00
2018-01-13T03:54:47.136Z,0.00
2018-01-13T03:55:47.127Z,0.00
2018-01-13T03:56:47.118Z,0.00
2018-01-13T03:57:47.111Z,0.00
2018-01-13T03:58:47.106Z,0.00
2018-01-13T03:59:47.098Z,0.00
2018-01-13T04:00:47.089Z,0.00
2018-01-13T04:01:47.083Z,0.00
2018-01-13T04:02:47.072Z,0.00
2018-01-13T04:03:47.067Z,0.00
2018-01-13T04:04:47.055Z,0.00
2018-01-13T04:05:47.046Z,0.00
2018-01-13T04:06:47.036Z,0.00
2018-01-13T04:07:47.027Z,0.00
2018-01-13T04:08:47.017Z,0.00
2018-01-13T04:09:47.009Z,0.00
2018-01-13T04:10:47.001Z,0.00
2018-01-13T04:11:46.994Z,0.00
2018-01-13T04:12:46.984Z,0.00
2018-01-13T04:13:46.976Z,0.00
2018-01-13T04:14:46.972Z,0.00
2018-01-13T04:15:46.963Z,0.00
2018-01-13T04:16:46.954Z,0.00
2018-01-13T04:17:46.951Z,0.00
2018-01-13T04:18:46.934Z,0.00
2018-01-13T04:19:46.925Z,0.00
2018-01-13T04:20:46.916Z,0.00
2018-01-13T04:21:46.907Z,0.00
2018-01-13T04:22:46.904Z,0.00
2018-01-13T04:23:46.896Z,0.00
2018-01-13T04:24:46.886Z,0.00
2018-01-13T04:25:46.878Z,0.00
2018-01-13T04:26:46.870Z,0.00
2018-01-13T04:27:46.863Z,0.00
2018-01-13T04:28:46.852Z,0.00
2018-01-13T04:29:46.844Z,0.00
2018-01-13T04:30:46.833Z,0.00
2018-01-13T04:31:46.823Z,0.00
2018-01-13T04:32:46.814Z,0.00
2018-01-13T04:33:46.806Z,0.00
2018-01-13T04:34:46.798Z,0.00
2018-01-13T04:35:46.790Z,0.00
2018-01-13T04:36:46.780Z,0.00
2018-01-13T04:37:46.772Z,0.00
2018-01-13T04:38:46.768Z,0.00
2018-01-13T04:39:46.760Z,0.00
2018-01-13T04:40:46.751Z,0.00
2018-01-13T04:41:46.743Z,0.00
2018-01-13T04:42:46.734Z,0.00
2018-01-13T04:43:46.727Z,0.00
2018-01-13T04:44:46.763Z,0.00
2018-01-13T04:45:46.710Z,0.00
2018-01-13T04:46:46.696Z,0.00
2018-01-13T04:47:46.688Z,0.00
2018-01-13T04:48:46.678Z,0.00
2018-01-13T04:49:46.670Z,0.00
2018-01-13T04:50:46.662Z,0.00
2018-01-13T04:51:46.653Z,0.00
2018-01-13T04:52:46.644Z,0.00
2018-01-13T04:53:46.637Z,0.00
2018-01-13T04:54:46.633Z,0.00
2018-01-13T04:55:46.624Z,0.00
2018-01-13T04:56:46.615Z,0.00
2018-01-13T04:57:46.607Z,0.00
2018-01-13T04:58:46.598Z,0.00
2018-01-13T04:59:46.590Z,0.00
2018-01-13T05:00:46.581Z,0.00
2018-01-13T05:01:46.573Z,0.00
2018-01-13T05:02:46.561Z,0.00
2018-01-13T05:03:46.552Z,0.00
2018-01-13T05:04:46.544Z,0.00
2018-01-13T05:05:46.537Z,0.00
2018-01-13T05:06:46.528Z,0.00
2018-01-13T05:07:46.519Z,0.00
2018-01-13T05:08:46.511Z,0.00
2018-01-13T05:09:46.503Z,0.00
2018-01-13T05:10:46.500Z,0.00
2018-01-13T05:11:46.492Z,0.00
2018-01-13T05:12:46.481Z,0.00
2018-01-13T05:13:46.473Z,0.00
2018-01-13T05:14:46.466Z,0.00
2018-01-13T05:15:46.458Z,0.00
2018-01-13T05:16:46.448Z,0.00
2018-01-13T05:17:46.440Z,0.00
2018-01-13T05:18:46.428Z,0.00
2018-01-13T05:19:46.424Z,0.00
2018-01-13T05:20:46.411Z,0.00
2018-01-13T05:21:46.403Z,0.00
2018-01-13T05:22:46.400Z,0.00
2018-01-13T05:23:46.392Z,0.00
2018-01-13T05:24:46.384Z,0.00
2018-01-13T05:25:46.374Z,0.00
2018-01-13T05:26:46.362Z,0.00
2018-01-13T05:27:46.354Z,0.00
2018-01-13T05:28:46.345Z,0.00
2018-01-13T05:29:46.337Z,0.00
2018-01-13T05:30:46.330Z,0.00
2018-01-13T05:31:46.321Z,0.00
2018-01-13T05:32:46.312Z,0.00
2018-01-13T05:33:46.305Z,0.00
2018-01-13T05:34:46.301Z,0.00
2018-01-13T05:35:46.295Z,0.00
2018-01-13T05:36:46.284Z,0.00
2018-01-13T05:37:46.276Z,0.00
2018-01-13T05:38:46.268Z,0.00
2018-01-13T05:39:46.260Z,0.00
2018-01-13T05:40:46.250Z,0.00
2018-01-13T05:41:46.245Z,0.00
2018-01-13T05:42:46.231Z,0.00
2018-01-13T05:43:46.225Z,0.00
2018-01-13T05:44:46.214Z,0.00
2018-01-13T05:45:46.206Z,0.00
2018-01-13T05:46:46.198Z,0.00
2018-01-13T05:47:46.190Z,0.00
2018-01-13T05:48:46.182Z,0.00
2018-01-13T05:49:46.173Z,0.00
2018-01-13T05:50:46.170Z,0.00
2018-01-13T05:51:46.162Z,0.00
2018-01-13T05:52:46.153Z,0.00
2018-01-13T05:53:46.145Z,0.00
2018-01-13T05:54:46.140Z,0.00
2018-01-13T05:55:46.180Z,0.00
2018-01-13T05:56:46.120Z,0.00
2018-01-13T05:57:46.113Z,0.00
2018-01-13T05:58:46.100Z,0.00
2018-01-13T05:59:46.094Z,0.00
2018-01-13T06:00:46.084Z,0.00
2018-01-13T06:01:46.076Z,0.00
2018-01-13T06:02:46.068Z,0.00
2018-01-13T06:03:46.062Z,0.00
2018-01-13T06:04:46.051Z,0.00
2018-01-13T06:05:46.044Z,0.00
2018-01-13T06:06:46.040Z,0.00
2018-01-13T06:07:46.033Z,0.00
2018-01-13T06:08:46.023Z,0.00
2018-01-13T06:09:46.015Z,0.00
2018-01-13T06:10:46.007Z,0.00
2018-01-13T06:11:45.999Z,0.00
2018-01-13T06:12:45.991Z,0.00
2018-01-13T06:13:45.983Z,0.00
2018-01-13T06:14:45.971Z,0.00
2018-01-13T06:15:45.962Z,0.00
2018-01-13T06:16:45.953Z,0.00
2018-01-13T06:17:45.948Z,0.00
2018-01-13T06:18:45.938Z,0.00
2018-01-13T06:19:45.930Z,0.00
2018-01-13T06:20:45.921Z,0.00
2018-01-13T06:21:45.913Z,0.00
2018-01-13T06:22:45.910Z,0.00
2018-01-13T06:23:45.901Z,0.00
2018-01-13T06:24:45.892Z,0.00
2018-01-13T06:25:45.887Z,0.00
2018-01-13T06:26:45.872Z,0.00
2018-01-13T06:27:45.864Z,0.00
2018-01-13T06:28:45.856Z,0.00
2018-01-13T06:29:45.848Z,0.00
2018-01-13T06:30:45.844Z,0.00
2018-01-13T06:31:45.836Z,0.00
2018-01-13T06:32:45.828Z,0.00
2018-01-13T06:33:45.821Z,0.00
2018-01-13T06:34:45.812Z,0.00
2018-01-13T06:35:45.804Z,0.00
2018-01-13T06:36:45.794Z,0.00
2018-01-13T06:37:45.787Z,0.00
2018-01-13T06:38:45.774Z,0.00
2018-01-13T06:39:45.766Z,0.00
2018-01-13T06:40:45.759Z,0.00
2018-01-13T06:41:45.751Z,0.00
2018-01-13T06:42:45.741Z,0.00
2018-01-13T06:43:45.734Z,0.00
2018-01-13T06:44:45.724Z,0.00
2018-01-13T06:45:45.716Z,0.00
2018-01-13T06:46:45.713Z,0.00
2018-01-13T06:47:45.705Z,0.00
2018-01-13T06:48:45.696Z,0.00
2018-01-13T06:49:45.688Z,0.00
2018-01-13T06:50:45.680Z,0.00
2018-01-13T06:51:45.672Z,0.00
2018-01-13T06:52:45.664Z,0.00
2018-01-13T06:53:45.654Z,0.00
2018-01-13T06:54:45.642Z,0.00
2018-01-13T06:55:45.634Z,0.00
2018-01-13T06:56:45.625Z,0.00
2018-01-13T06:57:45.617Z,0.00
2018-01-13T06:58:45.610Z,0.00
2018-01-13T06:59:45.601Z,4.00
2018-01-13T07:00:45.592Z,0.00
2018-01-13T07:01:45.584Z,0.00
2018-01-13T07:02:45.580Z,4.00
2018-01-13T07:03:45.572Z,0.00
2018-01-13T07:04:45.564Z,4.00
2018-01-13T07:05:45.555Z,4.00
2018-01-13T07:06:45.547Z,4.00
2018-01-13T07:07:45.538Z,8.00
2018-01-13T07:08:45.529Z,4.00
2018-01-13T07:09:45.522Z,4.00
2018-01-13T07:10:45.508Z,4.00
2018-01-13T07:11:45.502Z,12.00
2018-01-13T07:12:45.491Z,12.00
2018-01-13T07:13:45.483Z,12.00
2018-01-13T07:14:45.475Z,12.00
2018-01-13T07:15:45.466Z,16.00
2018-01-13T07:16:45.457Z,16.00
2018-01-13T07:17:45.449Z,20.00
2018-01-13T07:18:45.444Z,24.00
2018-01-13T07:19:45.437Z,24.00
2018-01-13T07:20:45.427Z,28.00
2018-01-13T07:21:45.419Z,32.00
2018-01-13T07:22:45.410Z,36.00
2018-01-13T07:23:45.402Z,40.00
2018-01-13T07:24:45.394Z,44.00
2018-01-13T07:25:45.384Z,48.00
2018-01-13T07:26:45.372Z,52.00
2018-01-13T07:27:45.363Z,64.00
2018-01-13T07:28:45.354Z,72.00
2018-01-13T07:29:45.346Z,76.00
2018-01-13T07:30:45.342Z,84.00
2018-01-13T07:31:45.335Z,92.00
2018-01-13T07:32:45.324Z,100.00
2018-01-13T07:33:45.316Z,112.00
2018-01-13T07:34:45.304Z,120.00
2018-01-13T07:35:45.296Z,128.00
2018-01-13T07:36:45.286Z,128.00
2018-01-13T07:37:45.278Z,128.00
2018-01-13T07:38:45.270Z,128.00
2018-01-13T07:39:45.261Z,132.00
2018-01-13T07:40:45.252Z,132.00
2018-01-13T07:41:45.244Z,132.00
2018-01-13T07:42:45.240Z,128.00
2018-01-13T07:43:45.232Z,132.00
2018-01-13T07:44:45.224Z,140.00
2018-01-13T07:45:45.215Z,160.00
2018-01-13T07:46:45.208Z,168.00
2018-01-13T07:47:45.252Z,168.00
2018-01-13T07:48:45.190Z,176.00
2018-01-13T07:49:45.181Z,212.00
2018-01-13T07:50:45.169Z,232.00
2018-01-13T07:51:45.161Z,216.00
2018-01-13T07:52:45.151Z,212.00
2018-01-13T07:53:45.146Z,204.00
2018-01-13T07:54:45.135Z,200.00
2018-01-13T07:55:45.128Z,184.00
2018-01-13T07:56:45.126Z,176.00
2018-01-13T07:57:45.113Z,160.00
2018-01-13T07:58:45.108Z,148.00
2018-01-13T07:59:45.099Z,152.00
2018-01-13T08:00:45.090Z,156.00
2018-01-13T08:01:45.082Z,152.00
2018-01-13T08:02:45.075Z,156.00
2018-01-13T08:03:45.067Z,180.00
2018-01-13T08:04:45.058Z,192.00
2018-01-13T08:05:45.050Z,188.00
2018-01-13T08:06:45.038Z,196.00
2018-01-13T08:07:45.030Z,196.00
2018-01-13T08:08:45.027Z,212.00
2018-01-13T08:09:45.013Z,212.00
2018-01-13T08:10:45.006Z,252.00
2018-01-13T08:11:44.997Z,252.00
2018-01-13T08:12:44.990Z,216.00
2018-01-13T08:13:44.982Z,228.00
2018-01-13T08:14:44.977Z,236.00
2018-01-13T08:15:44.969Z,236.00
2018-01-13T08:16:44.961Z,232.00
2018-01-13T08:17:44.953Z,236.00
2018-01-13T08:18:44.945Z,224.00
2018-01-13T08:19:44.941Z,208.00
2018-01-13T08:20:44.929Z,216.00
2018-01-13T08:21:44.921Z,228.00
2018-01-13T08:22:44.908Z,236.00
2018-01-13T08:23:44.900Z,260.00
2018-01-13T08:24:44.891Z,256.00
2018-01-13T08:25:44.885Z,264.00
2018-01-13T08:26:44.877Z,312.00
2018-01-13T08:27:44.874Z,328.00
2018-01-13T08:28:44.861Z,300.00
2018-01-13T08:29:44.852Z,296.00
2018-01-13T08:30:44.849Z,300.00
2018-01-13T08:31:44.840Z,296.00
2018-01-13T08:32:44.831Z,296.00
2018-01-13T08:33:44.876Z,268.00
2018-01-13T08:34:44.817Z,264.00
2018-01-13T08:35:44.809Z,256.00
2018-01-13T08:36:44.800Z,256.00
2018-01-13T08:37:44.793Z,276.00
2018-01-13T08:38:44.782Z,276.00
2018-01-13T08:39:44.773Z,292.00
2018-01-13T08:40:44.764Z,288.00
2018-01-13T08:41:44.757Z,308.00
2018-01-13T08:42:44.751Z,356.00
2018-01-13T08:43:44.742Z,364.00
2018-01-13T08:44:44.733Z,372.00
2018-01-13T08:45:44.725Z,372.00
2018-01-13T08:46:44.722Z,380.00
2018-01-13T08:47:44.714Z,396.00
2018-01-13T08:48:44.709Z,404.00
2018-01-13T08:49:44.698Z,408.00
2018-01-13T08:50:44.690Z,420.00
2018-01-13T08:51:44.683Z,456.00
2018-01-13T08:52:44.673Z,488.00
2018-01-13T08:53:44.666Z,536.00
2018-01-13T08:54:44.654Z,588.00
2018-01-13T08:55:44.647Z,636.00
2018-01-13T08:56:44.638Z,584.00
2018-01-13T08:57:44.629Z,568.00
2018-01-13T08:58:44.622Z,616.00
2018-01-13T08:59:44.615Z,608.00
2018-01-13T09:00:44.607Z,584.00
2018-01-13T09:01:44.598Z,608.00
2018-01-13T09:02:44.595Z,620.00
2018-01-13T09:03:44.587Z,616.00
2018-01-13T09:04:44.578Z,628.00
2018-01-13T09:05:44.570Z,760.00
2018-01-13T09:06:44.563Z,884.00
2018-01-13T09:07:44.555Z,920.00
2018-01-13T09:08:44.547Z,880.00
2018-01-13T09:09:44.539Z,808.00
2018-01-13T09:10:44.528Z,868.00
2018-01-13T09:11:44.519Z,748.00
2018-01-13T09:12:44.511Z,788.00
2018-01-13T09:13:44.503Z,792.00
2018-01-13T09:14:44.495Z,740.00
2018-01-13T09:15:44.487Z,736.00
2018-01-13T09:16:44.479Z,728.00
2018-01-13T09:17:44.472Z,720.00
2018-01-13T09:18:44.468Z,732.00
2018-01-13T09:19:44.461Z,724.00
2018-01-13T09:20:44.453Z,724.00
2018-01-13T09:21:44.444Z,744.00
2018-01-13T09:22:44.437Z,752.00
2018-01-13T09:23:44.429Z,760.00
2018-01-13T09:24:44.421Z,748.00
2018-01-13T09:25:44.422Z,740.00
2018-01-13T09:26:44.402Z,716.00
2018-01-13T09:27:44.395Z,688.00
2018-01-13T09:28:44.396Z,704.00
2018-01-13T09:29:44.382Z,728.00
2018-01-13T09:30:44.375Z,724.00
2018-01-13T09:31:44.363Z,688.00
2018-01-13T09:32:44.354Z,672.00
2018-01-13T09:33:44.348Z,692.00
2018-01-13T09:34:44.345Z,700.00
2018-01-13T09:35:44.336Z,736.00
2018-01-13T09:36:44.329Z,740.00
2018-01-13T09:37:44.320Z,756.00
2018-01-13T09:38:44.308Z,768.00
2018-01-13T09:39:44.306Z,756.00
2018-01-13T09:40:44.293Z,764.00
2018-01-13T09:41:44.286Z,796.00
2018-01-13T09:42:44.282Z,800.00
2018-01-13T09:43:44.276Z,820.00
2018-01-13T09:44:44.266Z,832.00
2018-01-13T09:45:44.318Z,836.00
2018-01-13T09:46:44.251Z,880.00
2018-01-13T09:47:44.243Z,932.00
2018-01-13T09:48:44.235Z,932.00
2018-01-13T09:49:44.228Z,904.00
2018-01-13T09:50:44.215Z,900.00
2018-01-13T09:51:44.209Z,892.00
2018-01-13T09:52:44.202Z,960.00
2018-01-13T09:53:44.191Z,1168.00
2018-01-13T09:54:44.185Z,1260.00
2018-01-13T09:55:44.176Z,1348.00
2018-01-13T09:56:44.169Z,1368.00
2018-01-13T09:57:44.160Z,1396.00
2018-01-13T09:58:44.158Z,1324.00
2018-01-13T09:59:44.149Z,1308.00
2018-01-13T10:00:44.140Z,1284.00
2018-01-13T10:01:44.133Z,1220.00
2018-01-13T10:02:44.125Z,1196.00
2018-01-13T10:03:44.153Z,1208.00
2018-01-13T10:04:44.110Z,1212.00
2018-01-13T10:05:44.102Z,1184.00
2018-01-13T10:06:44.089Z,1164.00
2018-01-13T10:07:44.082Z,1232.00
2018-01-13T10:08:44.072Z,1340.00
2018-01-13T10:09:44.068Z,1388.00
2018-01-13T10:10:44.059Z,1536.00
2018-01-13T10:11:44.050Z,1796.00
2018-01-13T10:12:44.041Z,2220.00
2018-01-13T10:13:44.032Z,3192.00
2018-01-13T10:14:44.029Z,3756.00
2018-01-13T10:15:44.023Z,3968.00
2018-01-13T10:16:44.013Z,3984.00
2018-01-13T10:17:44.005Z,4124.00
2018-01-13T10:18:43.997Z,3764.00
2018-01-13T10:19:43.993Z,4272.00
2018-01-13T10:20:43.980Z,5040.00
2018-01-13T10:21:43.972Z,4904.00
2018-01-13T10:22:43.961Z,4568.00
2018-01-13T10:23:43.954Z,4484.00
2018-01-13T10:24:43.944Z,4032.00
2018-01-13T10:25:43.937Z,3636.00
2018-01-13T10:26:43.931Z,3312.00
2018-01-13T10:27:43.945Z,3328.00
2018-01-13T10:28:43.914Z,3156.00
2018-01-13T10:29:43.949Z,3468.00
2018-01-13T10:30:43.904Z,2940.00
2018-01-13T10:31:43.896Z,2860.00
2018-01-13T10:32:43.889Z,3080.00
2018-01-13T10:33:43.883Z,3344.00
2018-01-13T10:34:43.875Z,3416.00
2018-01-13T10:35:43.867Z,2960.00
2018-01-13T10:36:43.859Z,3092.00
2018-01-13T10:37:43.852Z,3096.00
2018-01-13T10:38:43.842Z,3532.00
2018-01-13T10:39:43.834Z,3712.00
2018-01-13T10:40:43.826Z,3824.00
2018-01-13T10:41:43.820Z,3588.00
2018-01-13T10:42:43.817Z,4096.00
2018-01-13T10:43:43.810Z,4052.00
2018-01-13T10:44:43.806Z,3612.00
2018-01-13T10:45:43.798Z,3504.00
2018-01-13T10:46:43.835Z,3388.00
2018-01-13T10:47:43.776Z,3364.00
2018-01-13T10:48:43.768Z,3308.00
2018-01-13T10:49:43.761Z,3356.00
2018-01-13T10:50:43.754Z,5124.00
2018-01-13T10:51:43.749Z,12508.00
2018-01-13T10:52:43.740Z,13072.00
2018-01-13T10:53:43.732Z,16416.00
2018-01-13T10:54:43.730Z,17824.00
2018-01-13T10:55:43.723Z,18752.00
2018-01-13T10:56:43.717Z,17344.00
2018-01-13T10:57:43.710Z,17760.00
2018-01-13T10:58:43.706Z,17216.00
2018-01-13T10:59:43.701Z,16992.00
2018-01-13T11:00:43.695Z,16416.00
2018-01-13T11:01:43.691Z,16544.00
2018-01-13T11:02:43.683Z,15328.00
2018-01-13T11:03:43.679Z,16032.00
2018-01-13T11:04:43.675Z,15008.00
2018-01-13T11:05:43.673Z,15200.00
2018-01-13T11:06:43.670Z,14464.00
2018-01-13T11:07:43.668Z,12748.00
2018-01-13T11:08:43.666Z,15008.00
2018-01-13T11:09:43.664Z,12144.00
2018-01-13T11:10:43.670Z,8832.00
2018-01-13T11:11:43.665Z,10856.00
2018-01-13T11:12:43.663Z,7760.00
2018-01-13T11:13:43.665Z,8164.00
2018-01-13T11:14:43.662Z,10444.00
2018-01-13T11:15:43.661Z,8100.00
2018-01-13T11:16:43.663Z,8420.00
2018-01-13T11:17:43.658Z,8120.00
2018-01-13T11:18:43.654Z,8128.00
2018-01-13T11:19:43.652Z,13980.00
2018-01-13T11:20:43.653Z,12196.00
2018-01-13T11:21:43.649Z,8436.00
2018-01-13T11:22:43.648Z,9880.00
2018-01-13T11:23:43.646Z,8880.00
2018-01-13T11:24:43.644Z,7652.00
2018-01-13T11:25:43.643Z,6912.00
2018-01-13T11:26:43.650Z,7264.00
2018-01-13T11:27:43.644Z,6632.00
2018-01-13T11:28:43.641Z,8180.00
2018-01-13T11:29:43.642Z,6964.00
2018-01-13T11:30:43.648Z,6712.00
2018-01-13T11:31:43.637Z,7024.00
2018-01-13T11:32:43.638Z,10816.00
2018-01-13T11:33:43.637Z,12224.00
2018-01-13T11:34:43.628Z,8240.00
2018-01-13T11:35:43.625Z,8896.00
2018-01-13T11:36:43.623Z,8296.00
2018-01-13T11:37:43.624Z,7712.00
2018-01-13T11:38:43.620Z,7360.00
2018-01-13T11:39:43.613Z,7324.00
2018-01-13T11:40:43.610Z,9956.00
2018-01-13T11:41:43.606Z,7772.00
2018-01-13T11:42:43.610Z,8884.00
2018-01-13T11:43:43.605Z,7100.00
2018-01-13T11:44:43.605Z,7620.00
2018-01-13T11:45:43.599Z,7492.00
2018-01-13T11:46:43.592Z,7532.00
2018-01-13T11:47:43.597Z,7580.00
2018-01-13T11:48:43.592Z,7916.00
2018-01-13T11:49:43.591Z,8532.00
2018-01-13T11:50:43.590Z,7084.00
2018-01-13T11:51:43.583Z,6892.00
2018-01-13T11:52:43.576Z,7836.00
2018-01-13T11:53:43.572Z,7388.00
2018-01-13T11:54:43.569Z,8468.00
2018-01-13T11:55:43.572Z,7136.00
2018-01-13T11:56:43.560Z,7808.00
2018-01-13T11:57:43.558Z,6548.00
2018-01-13T11:58:43.579Z,7128.00
2018-01-13T11:59:43.546Z,7144.00
2018-01-13T12:00:43.540Z,5744.00
2018-01-13T12:01:43.535Z,5296.00
2018-01-13T12:02:43.532Z,5324.00
2018-01-13T12:03:43.533Z,6412.00
2018-01-13T12:04:43.521Z,6552.00
2018-01-13T12:05:43.518Z,5648.00
2018-01-13T12:06:43.517Z,6340.00
2018-01-13T12:07:43.514Z,5640.00
2018-01-13T12:08:43.507Z,4868.00
2018-01-13T12:09:43.503Z,5536.00
2018-01-13T12:10:43.500Z,5800.00
2018-01-13T12:11:43.499Z,5208.00
2018-01-13T12:12:43.490Z,6044.00
2018-01-13T12:13:43.485Z,4884.00
2018-01-13T12:14:43.479Z,4648.00
2018-01-13T12:15:43.471Z,4684.00
2018-01-13T12:16:43.468Z,4588.00
2018-01-13T12:17:43.461Z,4644.00
2018-01-13T12:18:43.459Z,4460.00
2018-01-13T12:19:43.458Z,4228.00
2018-01-13T12:20:43.444Z,4852.00
2018-01-13T12:21:43.439Z,5000.00
2018-01-13T12:22:43.442Z,4972.00
2018-01-13T12:23:43.435Z,4016.00
2018-01-13T12:24:43.428Z,3784.00
2018-01-13T12:25:43.423Z,3888.00
2018-01-13T12:26:43.420Z,4472.00
2018-01-13T12:27:43.412Z,5192.00
2018-01-13T12:28:43.406Z,5212.00
2018-01-13T12:29:43.401Z,5040.00
2018-01-13T12:30:43.392Z,5360.00
2018-01-13T12:31:43.386Z,5244.00
2018-01-13T12:32:43.381Z,5268.00
2018-01-13T12:33:43.375Z,5476.00
2018-01-13T12:34:43.374Z,5508.00
2018-01-13T12:35:43.366Z,5616.00
2018-01-13T12:36:43.360Z,5200.00
2018-01-13T12:37:43.352Z,4952.00
2018-01-13T12:38:43.350Z,4864.00
2018-01-13T12:39:43.345Z,4384.00
2018-01-13T12:40:43.338Z,4464.00
2018-01-13T12:41:43.333Z,4504.00
2018-01-13T12:42:43.328Z,4860.00
2018-01-13T12:43:43.322Z,5856.00
2018-01-13T12:44:43.315Z,6192.00
2018-01-13T12:45:43.310Z,6040.00
2018-01-13T12:46:43.300Z,6148.00
2018-01-13T12:47:43.293Z,6064.00
2018-01-13T12:48:43.287Z,6072.00
2018-01-13T12:49:43.282Z,6000.00